sensor_id;sensor_type;location;lat;lon;timestamp;P1;durP1;ratioP1;P2;durP2;ratioP2
74320;SDS011;62738;45.772;4.804;2023-05-27T00:00:05;8.82;;;4.97;;
74320;SDS011;62738;45.772;4.804;2023-05-27T00:02:33;7.72;;;5.15;;
74320;SDS011;62738;45.772;4.804;2023-05-27T00:05:00;8.40;;;4.95;;
74320;SDS011;62738;45.772;4.804;2023-05-27T00:07:27;7.65;;;4.78;;
74320;SDS011;62738;45.772;4.804;2023-05-27T00:09:54;10.43;;;5.15;;
74320;SDS011;62738;45.772;4.804;2023-05-27T00:12:21;7.25;;;4.78;;
74320;SDS011;62738;45.772;4.804;2023-05-27T00:14:55;11.00;;;5.53;;
74320;SDS011;62738;45.772;4.804;2023-05-27T00:17:21;9.63;;;5.70;;
74320;SDS011;62738;45.772;4.804;2023-05-27T00:19:48;8.23;;;5.22;;
74320;SDS011;62738;45.772;4.804;2023-05-27T00:22:15;9.55;;;5.38;;
74320;SDS011;62738;45.772;4.804;2023-05-27T00:24:42;8.75;;;5.60;;
74320;SDS011;62738;45.772;4.804;2023-05-27T00:27:09;8.20;;;4.72;;
74320;SDS011;62738;45.772;4.804;2023-05-27T00:29:37;8.45;;;4.93;;
74320;SDS011;62738;45.772;4.804;2023-05-27T00:32:03;8.15;;;5.18;;
74320;SDS011;62738;45.772;4.804;2023-05-27T00:34:31;9.50;;;5.57;;
74320;SDS011;62738;45.772;4.804;2023-05-27T00:36:58;10.32;;;5.28;;
74320;SDS011;62738;45.772;4.804;2023-05-27T00:39:24;8.65;;;4.82;;
74320;SDS011;62738;45.772;4.804;2023-05-27T00:41:51;12.35;;;5.28;;
74320;SDS011;62738;45.772;4.804;2023-05-27T00:44:18;10.68;;;5.20;;
74320;SDS011;62738;45.772;4.804;2023-05-27T00:46:45;12.57;;;5.55;;
74320;SDS011;62738;45.772;4.804;2023-05-27T00:49:14;8.02;;;5.32;;
74320;SDS011;62738;45.772;4.804;2023-05-27T00:51:41;7.60;;;5.00;;
74320;SDS011;62738;45.772;4.804;2023-05-27T00:54:08;8.98;;;5.30;;
74320;SDS011;62738;45.772;4.804;2023-05-27T00:56:35;9.27;;;5.35;;
74320;SDS011;62738;45.772;4.804;2023-05-27T00:59:02;8.30;;;5.25;;
74320;SDS011;62738;45.772;4.804;2023-05-27T01:04:04;9.60;;;5.18;;
74320;SDS011;62738;45.772;4.804;2023-05-27T01:11:41;10.57;;;5.75;;
74320;SDS011;62738;45.772;4.804;2023-05-27T01:14:11;11.63;;;5.38;;
74320;SDS011;62738;45.772;4.804;2023-05-27T01:16:40;7.57;;;4.53;;
74320;SDS011;62738;45.772;4.804;2023-05-27T01:19:14;10.10;;;5.40;;
74320;SDS011;62738;45.772;4.804;2023-05-27T01:21:51;11.07;;;5.40;;
74320;SDS011;62738;45.772;4.804;2023-05-27T01:24:19;11.82;;;5.10;;
74320;SDS011;62738;45.772;4.804;2023-05-27T01:26:46;9.40;;;5.47;;
74320;SDS011;62738;45.772;4.804;2023-05-27T01:29:12;11.07;;;5.32;;
74320;SDS011;62738;45.772;4.804;2023-05-27T01:31:45;9.30;;;5.40;;
74320;SDS011;62738;45.772;4.804;2023-05-27T01:34:18;10.23;;;5.07;;
74320;SDS011;62738;45.772;4.804;2023-05-27T01:36:51;9.93;;;5.38;;
74320;SDS011;62738;45.772;4.804;2023-05-27T01:39:22;8.98;;;5.18;;
74320;SDS011;62738;45.772;4.804;2023-05-27T01:41:51;9.98;;;5.47;;
74320;SDS011;62738;45.772;4.804;2023-05-27T01:44:19;9.73;;;5.53;;
74320;SDS011;62738;45.772;4.804;2023-05-27T01:46:46;9.68;;;6.57;;
74320;SDS011;62738;45.772;4.804;2023-05-27T01:49:13;11.02;;;5.68;;
74320;SDS011;62738;45.772;4.804;2023-05-27T01:51:40;10.73;;;6.38;;
74320;SDS011;62738;45.772;4.804;2023-05-27T01:54:07;9.88;;;4.88;;
74320;SDS011;62738;45.772;4.804;2023-05-27T01:56:33;9.32;;;5.65;;
74320;SDS011;62738;45.772;4.804;2023-05-27T01:59:00;10.63;;;5.05;;
74320;SDS011;62738;45.772;4.804;2023-05-27T02:01:26;11.52;;;5.10;;
74320;SDS011;62738;45.772;4.804;2023-05-27T02:03:54;10.02;;;6.03;;
74320;SDS011;62738;45.772;4.804;2023-05-27T02:06:21;12.48;;;5.35;;
74320;SDS011;62738;45.772;4.804;2023-05-27T02:08:48;9.07;;;5.65;;
74320;SDS011;62738;45.772;4.804;2023-05-27T02:11:15;11.63;;;5.75;;
74320;SDS011;62738;45.772;4.804;2023-05-27T02:13:42;8.98;;;5.53;;
74320;SDS011;62738;45.772;4.804;2023-05-27T02:16:09;11.05;;;5.43;;
74320;SDS011;62738;45.772;4.804;2023-05-27T02:18:36;11.63;;;5.88;;
74320;SDS011;62738;45.772;4.804;2023-05-27T02:21:02;11.43;;;5.85;;
74320;SDS011;62738;45.772;4.804;2023-05-27T02:23:32;9.00;;;5.55;;
74320;SDS011;62738;45.772;4.804;2023-05-27T02:25:59;10.40;;;6.32;;
74320;SDS011;62738;45.772;4.804;2023-05-27T02:28:27;8.02;;;5.63;;
74320;SDS011;62738;45.772;4.804;2023-05-27T02:30:54;9.20;;;5.95;;
74320;SDS011;62738;45.772;4.804;2023-05-27T02:33:20;11.02;;;5.75;;
74320;SDS011;62738;45.772;4.804;2023-05-27T02:35:47;11.55;;;6.18;;
74320;SDS011;62738;45.772;4.804;2023-05-27T02:38:14;8.80;;;6.20;;
74320;SDS011;62738;45.772;4.804;2023-05-27T02:40:41;8.98;;;5.88;;
74320;SDS011;62738;45.772;4.804;2023-05-27T02:43:08;9.02;;;5.63;;
74320;SDS011;62738;45.772;4.804;2023-05-27T02:45:34;10.05;;;6.03;;
74320;SDS011;62738;45.772;4.804;2023-05-27T02:48:01;10.88;;;5.65;;
74320;SDS011;62738;45.772;4.804;2023-05-27T02:50:28;11.23;;;6.55;;
74320;SDS011;62738;45.772;4.804;2023-05-27T02:52:55;9.27;;;6.18;;
74320;SDS011;62738;45.772;4.804;2023-05-27T02:55:22;9.20;;;5.57;;
74320;SDS011;62738;45.772;4.804;2023-05-27T02:57:48;8.55;;;5.88;;
74320;SDS011;62738;45.772;4.804;2023-05-27T03:00:15;11.52;;;5.57;;
74320;SDS011;62738;45.772;4.804;2023-05-27T03:02:42;11.15;;;5.95;;
74320;SDS011;62738;45.772;4.804;2023-05-27T03:05:09;9.70;;;6.30;;
74320;SDS011;62738;45.772;4.804;2023-05-27T03:07:36;9.00;;;5.55;;
74320;SDS011;62738;45.772;4.804;2023-05-27T03:10:03;11.90;;;5.90;;
74320;SDS011;62738;45.772;4.804;2023-05-27T03:12:29;9.60;;;6.10;;
74320;SDS011;62738;45.772;4.804;2023-05-27T03:14:56;11.07;;;6.05;;
74320;SDS011;62738;45.772;4.804;2023-05-27T03:17:23;10.18;;;5.70;;
74320;SDS011;62738;45.772;4.804;2023-05-27T03:19:49;11.10;;;6.28;;
74320;SDS011;62738;45.772;4.804;2023-05-27T03:22:17;9.80;;;6.43;;
74320;SDS011;62738;45.772;4.804;2023-05-27T03:24:43;9.75;;;6.00;;
74320;SDS011;62738;45.772;4.804;2023-05-27T03:27:11;9.82;;;6.13;;
74320;SDS011;62738;45.772;4.804;2023-05-27T03:29:37;11.18;;;6.05;;
74320;SDS011;62738;45.772;4.804;2023-05-27T03:32:04;11.43;;;6.10;;
74320;SDS011;62738;45.772;4.804;2023-05-27T03:34:31;11.32;;;5.82;;
74320;SDS011;62738;45.772;4.804;2023-05-27T03:36:58;8.18;;;6.18;;
74320;SDS011;62738;45.772;4.804;2023-05-27T03:39:25;10.00;;;6.03;;
74320;SDS011;62738;45.772;4.804;2023-05-27T03:41:51;9.20;;;6.03;;
74320;SDS011;62738;45.772;4.804;2023-05-27T03:44:18;7.65;;;6.13;;
74320;SDS011;62738;45.772;4.804;2023-05-27T03:46:45;9.90;;;5.93;;
74320;SDS011;62738;45.772;4.804;2023-05-27T03:49:12;9.18;;;5.97;;
74320;SDS011;62738;45.772;4.804;2023-05-27T03:51:39;10.32;;;5.90;;
74320;SDS011;62738;45.772;4.804;2023-05-27T03:54:06;9.60;;;6.28;;
74320;SDS011;62738;45.772;4.804;2023-05-27T03:56:32;11.57;;;6.15;;
74320;SDS011;62738;45.772;4.804;2023-05-27T03:58:59;11.38;;;5.97;;
74320;SDS011;62738;45.772;4.804;2023-05-27T04:01:26;9.52;;;6.00;;
74320;SDS011;62738;45.772;4.804;2023-05-27T04:03:54;13.50;;;6.28;;
74320;SDS011;62738;45.772;4.804;2023-05-27T04:06:21;14.50;;;7.20;;
74320;SDS011;62738;45.772;4.804;2023-05-27T04:08:47;9.43;;;6.10;;
74320;SDS011;62738;45.772;4.804;2023-05-27T04:11:14;9.55;;;6.05;;
74320;SDS011;62738;45.772;4.804;2023-05-27T04:13:41;11.63;;;6.38;;
74320;SDS011;62738;45.772;4.804;2023-05-27T04:16:07;12.95;;;6.32;;
74320;SDS011;62738;45.772;4.804;2023-05-27T04:18:34;9.25;;;6.30;;
74320;SDS011;62738;45.772;4.804;2023-05-27T04:21:01;10.93;;;6.43;;
74320;SDS011;62738;45.772;4.804;2023-05-27T04:23:28;9.48;;;6.35;;
74320;SDS011;62738;45.772;4.804;2023-05-27T04:25:55;9.18;;;6.10;;
74320;SDS011;62738;45.772;4.804;2023-05-27T04:28:22;10.85;;;6.75;;
74320;SDS011;62738;45.772;4.804;2023-05-27T04:30:48;11.27;;;6.60;;
74320;SDS011;62738;45.772;4.804;2023-05-27T04:33:16;8.60;;;5.82;;
74320;SDS011;62738;45.772;4.804;2023-05-27T04:35:43;13.43;;;6.53;;
74320;SDS011;62738;45.772;4.804;2023-05-27T04:38:11;9.80;;;6.75;;
74320;SDS011;62738;45.772;4.804;2023-05-27T04:40:43;11.48;;;5.85;;
74320;SDS011;62738;45.772;4.804;2023-05-27T04:43:12;10.65;;;6.13;;
74320;SDS011;62738;45.772;4.804;2023-05-27T04:45:40;10.63;;;7.13;;
74320;SDS011;62738;45.772;4.804;2023-05-27T04:48:08;8.98;;;6.47;;
74320;SDS011;62738;45.772;4.804;2023-05-27T04:50:36;10.73;;;6.22;;
74320;SDS011;62738;45.772;4.804;2023-05-27T04:53:03;9.38;;;6.40;;
74320;SDS011;62738;45.772;4.804;2023-05-27T04:55:33;10.85;;;6.80;;
74320;SDS011;62738;45.772;4.804;2023-05-27T04:58:00;10.60;;;6.30;;
74320;SDS011;62738;45.772;4.804;2023-05-27T05:00:30;11.80;;;7.55;;
74320;SDS011;62738;45.772;4.804;2023-05-27T05:03:05;9.55;;;6.35;;
74320;SDS011;62738;45.772;4.804;2023-05-27T05:05:34;10.57;;;5.95;;
74320;SDS011;62738;45.772;4.804;2023-05-27T05:08:00;9.35;;;6.30;;
74320;SDS011;62738;45.772;4.804;2023-05-27T05:10:28;8.75;;;6.10;;
74320;SDS011;62738;45.772;4.804;2023-05-27T05:12:55;8.30;;;6.10;;
74320;SDS011;62738;45.772;4.804;2023-05-27T05:15:22;9.95;;;6.57;;
74320;SDS011;62738;45.772;4.804;2023-05-27T05:17:49;10.20;;;6.10;;
74320;SDS011;62738;45.772;4.804;2023-05-27T05:20:16;10.45;;;6.38;;
74320;SDS011;62738;45.772;4.804;2023-05-27T05:22:43;11.40;;;7.00;;
74320;SDS011;62738;45.772;4.804;2023-05-27T05:25:10;12.18;;;6.68;;
74320;SDS011;62738;45.772;4.804;2023-05-27T05:27:36;12.40;;;6.63;;
74320;SDS011;62738;45.772;4.804;2023-05-27T05:30:04;8.80;;;6.40;;
74320;SDS011;62738;45.772;4.804;2023-05-27T05:32:31;10.30;;;6.28;;
74320;SDS011;62738;45.772;4.804;2023-05-27T05:34:58;10.75;;;6.18;;
74320;SDS011;62738;45.772;4.804;2023-05-27T05:37:25;13.98;;;6.97;;
74320;SDS011;62738;45.772;4.804;2023-05-27T05:39:53;10.27;;;6.15;;
74320;SDS011;62738;45.772;4.804;2023-05-27T05:42:21;9.85;;;6.10;;
74320;SDS011;62738;45.772;4.804;2023-05-27T05:44:48;9.57;;;6.22;;
74320;SDS011;62738;45.772;4.804;2023-05-27T05:47:15;10.38;;;6.20;;
74320;SDS011;62738;45.772;4.804;2023-05-27T05:49:41;11.30;;;6.10;;
74320;SDS011;62738;45.772;4.804;2023-05-27T05:52:08;11.00;;;6.15;;
74320;SDS011;62738;45.772;4.804;2023-05-27T05:54:35;11.60;;;6.32;;
74320;SDS011;62738;45.772;4.804;2023-05-27T05:57:02;11.85;;;6.72;;
74320;SDS011;62738;45.772;4.804;2023-05-27T05:59:28;11.85;;;6.63;;
74320;SDS011;62738;45.772;4.804;2023-05-27T06:01:55;8.85;;;6.13;;
74320;SDS011;62738;45.772;4.804;2023-05-27T06:04:22;11.25;;;6.20;;
74320;SDS011;62738;45.772;4.804;2023-05-27T06:06:48;9.50;;;5.50;;
74320;SDS011;62738;45.772;4.804;2023-05-27T06:09:15;10.02;;;6.47;;
74320;SDS011;62738;45.772;4.804;2023-05-27T06:11:42;11.25;;;5.78;;
74320;SDS011;62738;45.772;4.804;2023-05-27T06:14:09;9.75;;;6.63;;
74320;SDS011;62738;45.772;4.804;2023-05-27T06:16:36;10.38;;;5.60;;
74320;SDS011;62738;45.772;4.804;2023-05-27T06:19:02;14.05;;;6.00;;
74320;SDS011;62738;45.772;4.804;2023-05-27T06:21:29;10.70;;;6.53;;
74320;SDS011;62738;45.772;4.804;2023-05-27T06:23:57;8.93;;;6.00;;
74320;SDS011;62738;45.772;4.804;2023-05-27T06:26:25;11.10;;;6.47;;
74320;SDS011;62738;45.772;4.804;2023-05-27T06:28:53;11.52;;;6.47;;
74320;SDS011;62738;45.772;4.804;2023-05-27T06:31:20;9.57;;;5.80;;
74320;SDS011;62738;45.772;4.804;2023-05-27T06:33:47;10.95;;;5.90;;
74320;SDS011;62738;45.772;4.804;2023-05-27T06:36:13;10.75;;;5.80;;
74320;SDS011;62738;45.772;4.804;2023-05-27T06:38:40;10.55;;;6.05;;
74320;SDS011;62738;45.772;4.804;2023-05-27T06:41:07;14.07;;;5.97;;
74320;SDS011;62738;45.772;4.804;2023-05-27T06:43:34;12.15;;;6.03;;
74320;SDS011;62738;45.772;4.804;2023-05-27T06:46:01;10.07;;;6.32;;
74320;SDS011;62738;45.772;4.804;2023-05-27T06:48:30;12.32;;;5.93;;
74320;SDS011;62738;45.772;4.804;2023-05-27T06:50:57;10.88;;;5.57;;
74320;SDS011;62738;45.772;4.804;2023-05-27T06:53:24;12.35;;;5.85;;
74320;SDS011;62738;45.772;4.804;2023-05-27T06:55:50;11.88;;;5.55;;
74320;SDS011;62738;45.772;4.804;2023-05-27T06:58:17;10.32;;;5.50;;
74320;SDS011;62738;45.772;4.804;2023-05-27T07:00:44;11.40;;;5.47;;
74320;SDS011;62738;45.772;4.804;2023-05-27T07:03:11;14.52;;;6.22;;
74320;SDS011;62738;45.772;4.804;2023-05-27T07:05:37;11.07;;;6.20;;
74320;SDS011;62738;45.772;4.804;2023-05-27T07:08:05;9.15;;;6.05;;
74320;SDS011;62738;45.772;4.804;2023-05-27T07:10:32;10.63;;;6.18;;
74320;SDS011;62738;45.772;4.804;2023-05-27T07:12:59;9.27;;;5.38;;
74320;SDS011;62738;45.772;4.804;2023-05-27T07:15:26;10.57;;;5.68;;
74320;SDS011;62738;45.772;4.804;2023-05-27T07:17:57;10.48;;;5.78;;
74320;SDS011;62738;45.772;4.804;2023-05-27T07:20:24;9.45;;;5.80;;
74320;SDS011;62738;45.772;4.804;2023-05-27T07:22:50;9.77;;;6.28;;
74320;SDS011;62738;45.772;4.804;2023-05-27T07:25:18;11.10;;;5.82;;
74320;SDS011;62738;45.772;4.804;2023-05-27T07:27:44;12.25;;;6.28;;
74320;SDS011;62738;45.772;4.804;2023-05-27T07:30:11;12.48;;;6.05;;
74320;SDS011;62738;45.772;4.804;2023-05-27T07:32:38;9.10;;;5.53;;
74320;SDS011;62738;45.772;4.804;2023-05-27T07:35:04;13.00;;;7.03;;
74320;SDS011;62738;45.772;4.804;2023-05-27T07:37:31;10.02;;;6.63;;
74320;SDS011;62738;45.772;4.804;2023-05-27T07:39:58;9.82;;;5.95;;
74320;SDS011;62738;45.772;4.804;2023-05-27T07:42:25;12.98;;;6.22;;
74320;SDS011;62738;45.772;4.804;2023-05-27T07:44:53;11.75;;;6.18;;
74320;SDS011;62738;45.772;4.804;2023-05-27T07:47:20;11.40;;;6.20;;
74320;SDS011;62738;45.772;4.804;2023-05-27T07:49:50;12.38;;;6.38;;
74320;SDS011;62738;45.772;4.804;2023-05-27T07:52:17;8.93;;;5.97;;
74320;SDS011;62738;45.772;4.804;2023-05-27T07:54:43;10.48;;;5.63;;
74320;SDS011;62738;45.772;4.804;2023-05-27T07:57:20;10.57;;;6.03;;
74320;SDS011;62738;45.772;4.804;2023-05-27T07:59:47;11.82;;;6.25;;
74320;SDS011;62738;45.772;4.804;2023-05-27T08:02:14;9.07;;;5.85;;
74320;SDS011;62738;45.772;4.804;2023-05-27T08:04:41;12.18;;;5.95;;
74320;SDS011;62738;45.772;4.804;2023-05-27T08:07:10;9.70;;;5.35;;
74320;SDS011;62738;45.772;4.804;2023-05-27T08:09:37;10.07;;;6.00;;
74320;SDS011;62738;45.772;4.804;2023-05-27T08:12:03;10.98;;;6.13;;
74320;SDS011;62738;45.772;4.804;2023-05-27T08:14:32;10.85;;;6.03;;
74320;SDS011;62738;45.772;4.804;2023-05-27T08:16:59;9.70;;;6.03;;
74320;SDS011;62738;45.772;4.804;2023-05-27T08:19:27;8.85;;;5.60;;
74320;SDS011;62738;45.772;4.804;2023-05-27T08:21:54;9.13;;;5.50;;
74320;SDS011;62738;45.772;4.804;2023-05-27T08:24:22;9.75;;;5.80;;
74320;SDS011;62738;45.772;4.804;2023-05-27T08:26:50;17.90;;;6.05;;
74320;SDS011;62738;45.772;4.804;2023-05-27T08:29:17;9.23;;;5.55;;
74320;SDS011;62738;45.772;4.804;2023-05-27T08:31:43;10.85;;;6.10;;
74320;SDS011;62738;45.772;4.804;2023-05-27T08:34:10;12.00;;;6.15;;
74320;SDS011;62738;45.772;4.804;2023-05-27T08:36:37;10.18;;;5.72;;
74320;SDS011;62738;45.772;4.804;2023-05-27T08:39:04;9.93;;;5.55;;
74320;SDS011;62738;45.772;4.804;2023-05-27T08:41:31;10.38;;;5.85;;
74320;SDS011;62738;45.772;4.804;2023-05-27T08:43:58;9.80;;;5.65;;
74320;SDS011;62738;45.772;4.804;2023-05-27T08:46:51;11.57;;;5.80;;
74320;SDS011;62738;45.772;4.804;2023-05-27T08:49:18;10.20;;;5.78;;
74320;SDS011;62738;45.772;4.804;2023-05-27T08:51:45;10.50;;;5.53;;
74320;SDS011;62738;45.772;4.804;2023-05-27T08:54:12;10.70;;;5.93;;
74320;SDS011;62738;45.772;4.804;2023-05-27T08:56:39;10.07;;;5.82;;
74320;SDS011;62738;45.772;4.804;2023-05-27T08:59:06;9.82;;;5.53;;
74320;SDS011;62738;45.772;4.804;2023-05-27T09:01:33;9.95;;;6.00;;
74320;SDS011;62738;45.772;4.804;2023-05-27T09:04:02;9.85;;;5.63;;
74320;SDS011;62738;45.772;4.804;2023-05-27T09:06:29;10.38;;;6.20;;
74320;SDS011;62738;45.772;4.804;2023-05-27T09:08:55;12.05;;;5.95;;
74320;SDS011;62738;45.772;4.804;2023-05-27T09:11:25;10.75;;;5.75;;
74320;SDS011;62738;45.772;4.804;2023-05-27T09:13:54;9.63;;;5.60;;
74320;SDS011;62738;45.772;4.804;2023-05-27T09:16:24;8.52;;;5.72;;
74320;SDS011;62738;45.772;4.804;2023-05-27T09:18:51;10.32;;;5.60;;
74320;SDS011;62738;45.772;4.804;2023-05-27T09:21:18;10.88;;;5.93;;
74320;SDS011;62738;45.772;4.804;2023-05-27T09:23:45;11.35;;;5.88;;
74320;SDS011;62738;45.772;4.804;2023-05-27T09:26:12;11.07;;;5.95;;
74320;SDS011;62738;45.772;4.804;2023-05-27T09:28:39;10.40;;;5.70;;
74320;SDS011;62738;45.772;4.804;2023-05-27T09:31:07;8.50;;;5.50;;
74320;SDS011;62738;45.772;4.804;2023-05-27T09:33:37;10.18;;;6.18;;
74320;SDS011;62738;45.772;4.804;2023-05-27T09:36:05;11.07;;;5.95;;
74320;SDS011;62738;45.772;4.804;2023-05-27T09:38:33;7.97;;;5.55;;
74320;SDS011;62738;45.772;4.804;2023-05-27T09:41:02;9.48;;;6.50;;
74320;SDS011;62738;45.772;4.804;2023-05-27T09:43:29;10.35;;;5.28;;
74320;SDS011;62738;45.772;4.804;2023-05-27T09:46:00;8.75;;;5.28;;
74320;SDS011;62738;45.772;4.804;2023-05-27T09:48:32;10.00;;;5.68;;
74320;SDS011;62738;45.772;4.804;2023-05-27T09:50:59;15.55;;;6.85;;
74320;SDS011;62738;45.772;4.804;2023-05-27T09:53:27;7.40;;;5.05;;
74320;SDS011;62738;45.772;4.804;2023-05-27T09:55:54;7.03;;;5.13;;
74320;SDS011;62738;45.772;4.804;2023-05-27T09:58:23;9.88;;;5.28;;
74320;SDS011;62738;45.772;4.804;2023-05-27T10:00:50;10.55;;;5.85;;
74320;SDS011;62738;45.772;4.804;2023-05-27T10:03:21;9.40;;;5.72;;
74320;SDS011;62738;45.772;4.804;2023-05-27T10:05:51;9.60;;;5.57;;
74320;SDS011;62738;45.772;4.804;2023-05-27T10:08:18;9.23;;;6.03;;
74320;SDS011;62738;45.772;4.804;2023-05-27T10:10:51;9.60;;;5.32;;
74320;SDS011;62738;45.772;4.804;2023-05-27T10:13:19;13.20;;;6.05;;
74320;SDS011;62738;45.772;4.804;2023-05-27T10:15:47;9.68;;;5.68;;
74320;SDS011;62738;45.772;4.804;2023-05-27T10:18:26;11.35;;;6.20;;
74320;SDS011;62738;45.772;4.804;2023-05-27T10:20:56;6.65;;;5.63;;
74320;SDS011;62738;45.772;4.804;2023-05-27T10:23:25;8.90;;;5.70;;
74320;SDS011;62738;45.772;4.804;2023-05-27T10:25:53;8.52;;;5.63;;
74320;SDS011;62738;45.772;4.804;2023-05-27T10:31:03;8.20;;;5.28;;
74320;SDS011;62738;45.772;4.804;2023-05-27T10:33:37;7.15;;;5.35;;
74320;SDS011;62738;45.772;4.804;2023-05-27T10:36:15;9.18;;;6.82;;
74320;SDS011;62738;45.772;4.804;2023-05-27T10:38:54;9.55;;;5.65;;
74320;SDS011;62738;45.772;4.804;2023-05-27T10:41:22;11.43;;;5.75;;
74320;SDS011;62738;45.772;4.804;2023-05-27T10:43:55;9.48;;;5.38;;
74320;SDS011;62738;45.772;4.804;2023-05-27T10:46:26;8.77;;;5.63;;
74320;SDS011;62738;45.772;4.804;2023-05-27T10:48:53;9.50;;;5.47;;
74320;SDS011;62738;45.772;4.804;2023-05-27T10:51:20;10.10;;;5.28;;
74320;SDS011;62738;45.772;4.804;2023-05-27T10:54:02;8.20;;;5.68;;
74320;SDS011;62738;45.772;4.804;2023-05-27T10:56:50;8.60;;;5.22;;
74320;SDS011;62738;45.772;4.804;2023-05-27T10:59:21;9.60;;;5.35;;
74320;SDS011;62738;45.772;4.804;2023-05-27T11:01:52;8.32;;;5.22;;
74320;SDS011;62738;45.772;4.804;2023-05-27T11:04:20;8.80;;;5.65;;
74320;SDS011;62738;45.772;4.804;2023-05-27T11:06:58;15.25;;;6.07;;
74320;SDS011;62738;45.772;4.804;2023-05-27T11:09:30;11.18;;;5.78;;
74320;SDS011;62738;45.772;4.804;2023-05-27T11:12:01;7.38;;;5.35;;
74320;SDS011;62738;45.772;4.804;2023-05-27T11:14:28;8.73;;;5.30;;
74320;SDS011;62738;45.772;4.804;2023-05-27T11:16:56;8.38;;;5.50;;
74320;SDS011;62738;45.772;4.804;2023-05-27T11:19:23;10.25;;;5.20;;
74320;SDS011;62738;45.772;4.804;2023-05-27T11:21:50;7.72;;;5.28;;
74320;SDS011;62738;45.772;4.804;2023-05-27T11:24:17;8.43;;;5.65;;
74320;SDS011;62738;45.772;4.804;2023-05-27T11:26:45;10.05;;;5.15;;
74320;SDS011;62738;45.772;4.804;2023-05-27T11:29:13;9.02;;;5.03;;
74320;SDS011;62738;45.772;4.804;2023-05-27T11:31:40;9.45;;;5.30;;
74320;SDS011;62738;45.772;4.804;2023-05-27T11:34:14;10.38;;;5.40;;
74320;SDS011;62738;45.772;4.804;2023-05-27T11:36:43;6.03;;;4.82;;
74320;SDS011;62738;45.772;4.804;2023-05-27T11:41:49;7.45;;;5.05;;
74320;SDS011;62738;45.772;4.804;2023-05-27T11:44:20;10.77;;;5.03;;
74320;SDS011;62738;45.772;4.804;2023-05-27T11:46:51;7.15;;;5.30;;
74320;SDS011;62738;45.772;4.804;2023-05-27T11:49:19;11.88;;;5.35;;
74320;SDS011;62738;45.772;4.804;2023-05-27T11:51:46;9.98;;;4.90;;
74320;SDS011;62738;45.772;4.804;2023-05-27T11:54:24;8.65;;;5.03;;
74320;SDS011;62738;45.772;4.804;2023-05-27T11:56:53;9.10;;;5.50;;
74320;SDS011;62738;45.772;4.804;2023-05-27T11:59:21;9.88;;;5.07;;
74320;SDS011;62738;45.772;4.804;2023-05-27T12:01:50;7.78;;;4.97;;
74320;SDS011;62738;45.772;4.804;2023-05-27T12:04:20;10.88;;;5.30;;
74320;SDS011;62738;45.772;4.804;2023-05-27T12:06:47;7.15;;;4.85;;
74320;SDS011;62738;45.772;4.804;2023-05-27T12:09:14;8.32;;;4.90;;
74320;SDS011;62738;45.772;4.804;2023-05-27T12:11:41;8.50;;;4.85;;
74320;SDS011;62738;45.772;4.804;2023-05-27T12:14:08;8.25;;;4.90;;
74320;SDS011;62738;45.772;4.804;2023-05-27T12:16:35;8.32;;;5.05;;
74320;SDS011;62738;45.772;4.804;2023-05-27T12:19:02;10.77;;;4.68;;
74320;SDS011;62738;45.772;4.804;2023-05-27T12:21:28;6.47;;;4.40;;
74320;SDS011;62738;45.772;4.804;2023-05-27T12:23:55;8.70;;;4.80;;
74320;SDS011;62738;45.772;4.804;2023-05-27T12:26:22;8.40;;;4.55;;
74320;SDS011;62738;45.772;4.804;2023-05-27T12:28:49;7.35;;;4.88;;
74320;SDS011;62738;45.772;4.804;2023-05-27T12:31:16;7.95;;;5.00;;
74320;SDS011;62738;45.772;4.804;2023-05-27T12:33:43;7.65;;;5.18;;
74320;SDS011;62738;45.772;4.804;2023-05-27T12:36:10;8.95;;;4.85;;
74320;SDS011;62738;45.772;4.804;2023-05-27T12:38:37;8.20;;;4.68;;
74320;SDS011;62738;45.772;4.804;2023-05-27T12:41:04;8.07;;;4.35;;
74320;SDS011;62738;45.772;4.804;2023-05-27T12:43:31;8.65;;;5.15;;
74320;SDS011;62738;45.772;4.804;2023-05-27T12:45:57;7.22;;;4.70;;
74320;SDS011;62738;45.772;4.804;2023-05-27T12:48:25;8.70;;;4.75;;
74320;SDS011;62738;45.772;4.804;2023-05-27T12:50:52;8.85;;;4.20;;
74320;SDS011;62738;45.772;4.804;2023-05-27T12:53:19;7.47;;;4.38;;
74320;SDS011;62738;45.772;4.804;2023-05-27T12:55:46;7.55;;;4.35;;
74320;SDS011;62738;45.772;4.804;2023-05-27T12:58:13;8.43;;;4.60;;
74320;SDS011;62738;45.772;4.804;2023-05-27T13:00:39;6.15;;;4.32;;
74320;SDS011;62738;45.772;4.804;2023-05-27T13:03:06;8.32;;;4.45;;
74320;SDS011;62738;45.772;4.804;2023-05-27T13:05:35;7.38;;;4.32;;
74320;SDS011;62738;45.772;4.804;2023-05-27T13:08:03;8.60;;;4.07;;
74320;SDS011;62738;45.772;4.804;2023-05-27T13:10:33;8.05;;;4.35;;
74320;SDS011;62738;45.772;4.804;2023-05-27T13:13:00;7.45;;;4.15;;
74320;SDS011;62738;45.772;4.804;2023-05-27T13:15:27;7.80;;;4.53;;
74320;SDS011;62738;45.772;4.804;2023-05-27T13:17:55;10.05;;;4.40;;
74320;SDS011;62738;45.772;4.804;2023-05-27T13:20:23;7.07;;;3.92;;
74320;SDS011;62738;45.772;4.804;2023-05-27T13:22:51;9.00;;;4.05;;
74320;SDS011;62738;45.772;4.804;2023-05-27T13:25:19;8.18;;;4.28;;
74320;SDS011;62738;45.772;4.804;2023-05-27T13:27:46;9.13;;;4.10;;
74320;SDS011;62738;45.772;4.804;2023-05-27T13:30:13;7.47;;;4.30;;
74320;SDS011;62738;45.772;4.804;2023-05-27T13:32:41;6.97;;;4.03;;
74320;SDS011;62738;45.772;4.804;2023-05-27T13:35:10;5.00;;;3.35;;
74320;SDS011;62738;45.772;4.804;2023-05-27T13:37:38;5.78;;;3.70;;
74320;SDS011;62738;45.772;4.804;2023-05-27T13:40:08;7.43;;;4.10;;
74320;SDS011;62738;45.772;4.804;2023-05-27T13:42:36;6.43;;;4.00;;
74320;SDS011;62738;45.772;4.804;2023-05-27T13:45:03;7.88;;;3.67;;
74320;SDS011;62738;45.772;4.804;2023-05-27T13:47:31;7.55;;;3.85;;
74320;SDS011;62738;45.772;4.804;2023-05-27T13:49:58;5.25;;;3.63;;
74320;SDS011;62738;45.772;4.804;2023-05-27T13:52:25;5.60;;;3.63;;
74320;SDS011;62738;45.772;4.804;2023-05-27T13:54:52;6.78;;;3.60;;
74320;SDS011;62738;45.772;4.804;2023-05-27T13:57:18;6.30;;;3.78;;
74320;SDS011;62738;45.772;4.804;2023-05-27T13:59:45;6.22;;;3.50;;
74320;SDS011;62738;45.772;4.804;2023-05-27T14:02:12;5.90;;;3.33;;
74320;SDS011;62738;45.772;4.804;2023-05-27T14:04:38;6.68;;;3.40;;
74320;SDS011;62738;45.772;4.804;2023-05-27T14:07:05;6.20;;;3.25;;
74320;SDS011;62738;45.772;4.804;2023-05-27T14:09:32;9.10;;;3.00;;
74320;SDS011;62738;45.772;4.804;2023-05-27T14:11:59;5.88;;;3.28;;
74320;SDS011;62738;45.772;4.804;2023-05-27T14:14:26;6.85;;;3.45;;
74320;SDS011;62738;45.772;4.804;2023-05-27T14:16:52;5.82;;;3.25;;
74320;SDS011;62738;45.772;4.804;2023-05-27T14:19:20;5.22;;;2.88;;
74320;SDS011;62738;45.772;4.804;2023-05-27T14:21:46;5.53;;;2.75;;
74320;SDS011;62738;45.772;4.804;2023-05-27T14:24:13;4.53;;;2.92;;
74320;SDS011;62738;45.772;4.804;2023-05-27T14:26:40;4.63;;;3.05;;
74320;SDS011;62738;45.772;4.804;2023-05-27T14:29:07;5.22;;;2.95;;
74320;SDS011;62738;45.772;4.804;2023-05-27T14:31:34;7.07;;;3.17;;
74320;SDS011;62738;45.772;4.804;2023-05-27T14:34:00;5.03;;;2.97;;
74320;SDS011;62738;45.772;4.804;2023-05-27T14:36:27;4.20;;;2.85;;
74320;SDS011;62738;45.772;4.804;2023-05-27T14:38:54;5.18;;;2.90;;
74320;SDS011;62738;45.772;4.804;2023-05-27T14:41:20;6.32;;;2.72;;
74320;SDS011;62738;45.772;4.804;2023-05-27T14:43:48;5.90;;;3.10;;
74320;SDS011;62738;45.772;4.804;2023-05-27T14:46:22;5.00;;;2.63;;
74320;SDS011;62738;45.772;4.804;2023-05-27T14:48:49;3.78;;;2.67;;
74320;SDS011;62738;45.772;4.804;2023-05-27T14:51:16;3.75;;;2.67;;
74320;SDS011;62738;45.772;4.804;2023-05-27T14:53:43;4.72;;;2.90;;
74320;SDS011;62738;45.772;4.804;2023-05-27T14:56:09;4.40;;;2.75;;
74320;SDS011;62738;45.772;4.804;2023-05-27T14:58:36;4.85;;;2.45;;